createdAt,value
2018-03-18T00:02:01.936Z,78.40
2018-03-18T00:04:29.502Z,78.70
2018-03-18T00:06:57.118Z,78.50
2018-03-18T00:09:25.455Z,78.70
2018-03-18T00:11:53.066Z,78.60
2018-03-18T00:14:20.632Z,78.40
2018-03-18T00:16:48.227Z,78.30
2018-03-18T00:19:15.790Z,78.60
2018-03-18T00:21:43.388Z,78.90
2018-03-18T00:24:11.811Z,78.50
2018-03-18T00:26:39.485Z,78.40
2018-03-18T00:29:07.090Z,78.10
2018-03-18T00:31:35.423Z,78.40
2018-03-18T00:34:03.015Z,78.40
2018-03-18T00:36:31.371Z,77.60
2018-03-18T00:38:59.103Z,77.60
2018-03-18T00:41:26.807Z,77.60
2018-03-18T00:43:54.367Z,77.30
2018-03-18T00:46:21.954Z,78.60
2018-03-18T00:48:49.587Z,78.20
2018-03-18T00:51:29.191Z,78.70
2018-03-18T00:53:56.783Z,78.50
2018-03-18T00:56:24.407Z,79.20
2018-03-18T00:58:51.970Z,78.50
2018-03-18T01:01:19.579Z,78.70
2018-03-18T01:03:47.919Z,79.50
2018-03-18T01:06:15.520Z,78.90
2018-03-18T01:08:43.114Z,77.70
2018-03-18T01:11:10.719Z,78.30
2018-03-18T01:13:39.138Z,78.80
2018-03-18T01:16:06.838Z,78.20
2018-03-18T01:18:34.406Z,78.00
2018-03-18T01:21:02.011Z,78.30
2018-03-18T01:23:29.579Z,78.60
2018-03-18T01:25:57.167Z,78.20
2018-03-18T01:28:24.775Z,78.30
2018-03-18T01:30:52.347Z,78.60
2018-03-18T01:33:19.958Z,77.90
2018-03-18T01:35:47.573Z,78.60
2018-03-18T01:38:15.249Z,77.80
2018-03-18T01:40:42.834Z,78.30
2018-03-18T01:43:10.515Z,79.00
2018-03-18T01:45:38.866Z,78.30
2018-03-18T01:48:06.486Z,78.30
2018-03-18T01:50:34.138Z,78.10
2018-03-18T01:56:00.964Z,78.80
2018-03-18T01:58:29.361Z,77.50
2018-03-18T02:00:57.699Z,77.20
2018-03-18T02:03:26.075Z,77.00
2018-03-18T02:05:53.638Z,76.90
2018-03-18T02:08:21.211Z,76.90
2018-03-18T02:10:48.811Z,76.90
2018-03-18T02:13:16.407Z,77.10
2018-03-18T02:15:44.016Z,77.30
2018-03-18T02:18:11.647Z,77.40
2018-03-18T02:20:39.366Z,77.70
2018-03-18T02:23:06.927Z,77.90
2018-03-18T02:25:34.526Z,77.50
2018-03-18T02:28:02.097Z,78.10
2018-03-18T02:30:29.698Z,77.60
2018-03-18T02:32:57.302Z,77.90
2018-03-18T02:35:24.864Z,77.50
2018-03-18T02:37:52.484Z,77.90
2018-03-18T02:40:20.071Z,77.20
2018-03-18T02:42:47.671Z,76.60
2018-03-18T02:45:15.255Z,76.70
2018-03-18T02:47:42.866Z,77.40
2018-03-18T02:50:11.204Z,76.70
2018-03-18T02:52:38.787Z,76.60
2018-03-18T02:55:06.472Z,77.40
2018-03-18T02:57:34.814Z,77.30
2018-03-18T03:00:02.435Z,77.20
2018-03-18T03:02:30.000Z,76.50
2018-03-18T03:04:57.605Z,76.20
2018-03-18T03:07:25.175Z,76.30
2018-03-18T03:09:53.531Z,76.00
2018-03-18T03:12:21.110Z,75.80
2018-03-18T03:14:49.498Z,75.60
2018-03-18T03:17:17.854Z,76.20
2018-03-18T03:19:45.430Z,76.10
2018-03-18T03:22:13.802Z,75.50
2018-03-18T03:24:42.135Z,75.10
2018-03-18T03:27:09.731Z,75.00
2018-03-18T03:29:37.498Z,75.20
2018-03-18T03:32:05.884Z,75.60
2018-03-18T03:34:34.207Z,74.60
2018-03-18T03:37:01.784Z,74.40
2018-03-18T03:39:29.391Z,75.30
2018-03-18T03:41:56.957Z,75.00
2018-03-18T03:44:24.554Z,75.50
2018-03-18T03:46:52.132Z,75.00
2018-03-18T03:49:19.729Z,75.30
2018-03-18T03:51:47.318Z,74.80
2018-03-18T03:54:14.918Z,74.40
2018-03-18T03:56:42.482Z,74.80
2018-03-18T03:59:10.903Z,75.20
2018-03-18T04:01:38.462Z,74.90
2018-03-18T04:04:06.084Z,72.60
2018-03-18T04:06:34.474Z,74.20
2018-03-18T04:09:02.806Z,73.90
2018-03-18T04:11:30.522Z,73.80
2018-03-18T04:13:58.087Z,74.20
2018-03-18T04:16:25.674Z,72.80
2018-03-18T04:18:53.246Z,74.10
2018-03-18T04:21:20.863Z,72.50
2018-03-18T04:23:48.443Z,73.00
2018-03-18T04:26:16.036Z,73.10
2018-03-18T04:28:43.634Z,72.70
2018-03-18T04:31:11.234Z,72.50
2018-03-18T04:33:38.863Z,73.40
2018-03-18T04:36:06.550Z,74.00
2018-03-18T04:38:34.118Z,73.60
2018-03-18T04:41:01.774Z,72.70
2018-03-18T04:43:29.466Z,73.00
2018-03-18T04:45:57.195Z,74.00
2018-03-18T04:48:24.759Z,73.70
2018-03-18T04:50:52.394Z,73.70
2018-03-18T04:53:19.986Z,73.40
2018-03-18T04:55:47.554Z,72.70
2018-03-18T04:58:15.159Z,72.40
2018-03-18T05:00:42.732Z,72.40
2018-03-18T05:03:10.328Z,73.20
2018-03-18T05:05:37.907Z,71.90
2018-03-18T05:08:06.277Z,73.30
2018-03-18T05:10:33.847Z,73.30
2018-03-18T05:13:01.486Z,72.60
2018-03-18T05:15:29.226Z,72.60
2018-03-18T05:17:56.788Z,72.30
2018-03-18T05:20:24.383Z,72.20
2018-03-18T05:22:52.769Z,74.00
2018-03-18T05:25:20.551Z,73.80
2018-03-18T05:27:48.114Z,72.30
2018-03-18T05:30:15.726Z,72.10
2018-03-18T05:32:43.327Z,71.50
2018-03-18T05:35:10.887Z,71.90
2018-03-18T05:37:38.482Z,71.30
2018-03-18T05:40:06.048Z,71.70
2018-03-18T05:42:33.659Z,71.30
2018-03-18T05:45:01.222Z,71.20
2018-03-18T05:47:28.802Z,70.50
2018-03-18T05:49:56.367Z,69.50
2018-03-18T05:52:23.967Z,69.00
2018-03-18T05:54:52.304Z,70.20
2018-03-18T05:57:19.871Z,70.10
2018-03-18T05:59:47.462Z,68.30
2018-03-18T06:02:15.803Z,69.60
2018-03-18T06:04:43.399Z,69.60
2018-03-18T06:07:11.731Z,66.50
2018-03-18T06:09:39.320Z,66.50
2018-03-18T06:12:07.674Z,67.20
2018-03-18T06:14:35.263Z,67.20
2018-03-18T06:17:03.601Z,66.60
2018-03-18T06:19:31.167Z,66.60
2018-03-18T06:21:58.752Z,67.20
2018-03-18T06:24:26.318Z,67.00
2018-03-18T06:26:54.758Z,69.50
2018-03-18T06:29:22.338Z,69.50
2018-03-18T06:31:49.984Z,67.90
2018-03-18T06:34:17.555Z,68.10
2018-03-18T06:36:45.118Z,69.00
2018-03-18T06:39:12.707Z,66.90
2018-03-18T06:41:41.037Z,66.80
2018-03-18T06:44:08.674Z,66.80
2018-03-18T06:46:36.242Z,66.50
2018-03-18T06:49:03.850Z,66.40
2018-03-18T06:51:32.192Z,66.10
2018-03-18T06:53:59.766Z,66.00
2018-03-18T06:56:27.372Z,67.60
2018-03-18T06:58:54.972Z,66.30
2018-03-18T07:01:22.570Z,66.40
2018-03-18T07:03:50.939Z,67.20
2018-03-18T07:06:19.366Z,66.50
2018-03-18T07:08:47.039Z,66.50
2018-03-18T07:11:14.723Z,67.90
2018-03-18T07:13:42.439Z,66.40
2018-03-18T07:16:10.055Z,67.20
2018-03-18T07:18:38.531Z,65.90
2018-03-18T07:21:06.371Z,65.90
2018-03-18T07:23:33.989Z,65.60
2018-03-18T07:26:01.579Z,65.30
2018-03-18T07:28:29.166Z,66.40
2018-03-18T07:30:56.774Z,66.50
2018-03-18T07:33:24.350Z,65.80
2018-03-18T07:35:52.002Z,65.10
2018-03-18T07:38:19.586Z,65.10
2018-03-18T07:40:47.166Z,66.20
2018-03-18T07:43:14.780Z,65.80
2018-03-18T07:45:42.486Z,65.00
2018-03-18T07:48:10.859Z,67.40
2018-03-18T07:50:38.490Z,66.60
2018-03-18T07:53:06.078Z,65.30
2018-03-18T07:55:33.675Z,65.80
2018-03-18T07:58:01.270Z,65.10
2018-03-18T08:00:28.835Z,65.40
2018-03-18T08:02:56.447Z,65.40
2018-03-18T08:05:24.046Z,65.00
2018-03-18T08:07:51.630Z,64.40
2018-03-18T08:10:19.360Z,64.80
2018-03-18T08:12:46.951Z,65.20
2018-03-18T08:15:14.548Z,65.40
2018-03-18T08:17:42.107Z,64.40
2018-03-18T08:20:09.704Z,65.20
2018-03-18T08:22:37.271Z,64.80
2018-03-18T08:25:04.873Z,65.40
2018-03-18T08:27:33.212Z,65.50
2018-03-18T08:30:00.822Z,64.80
2018-03-18T08:32:28.530Z,63.80
2018-03-18T08:34:56.098Z,64.30
2018-03-18T08:37:23.698Z,64.80
2018-03-18T08:39:51.294Z,64.70
2018-03-18T08:42:29.711Z,63.80
2018-03-18T08:44:57.310Z,65.30
2018-03-18T08:47:25.785Z,64.50
2018-03-18T08:49:54.143Z,63.60
2018-03-18T08:52:21.763Z,63.60
2018-03-18T08:54:49.350Z,63.90
2018-03-18T08:57:16.997Z,63.70
2018-03-18T08:59:44.582Z,64.30
2018-03-18T09:02:12.152Z,63.80
2018-03-18T09:04:39.750Z,63.70
2018-03-18T09:07:07.391Z,63.70
2018-03-18T09:09:35.729Z,65.20
2018-03-18T09:12:03.387Z,65.10
2018-03-18T09:14:30.982Z,66.20
2018-03-18T09:16:59.367Z,63.70
2018-03-18T09:19:27.756Z,64.30
2018-03-18T09:21:55.319Z,64.20
2018-03-18T09:24:22.907Z,64.70
2018-03-18T09:26:50.504Z,63.40
2018-03-18T09:29:18.928Z,63.50
2018-03-18T09:31:46.624Z,63.50
2018-03-18T09:34:14.188Z,63.60
2018-03-18T09:36:41.790Z,63.20
2018-03-18T09:39:09.552Z,63.20
2018-03-18T09:41:37.175Z,62.50
2018-03-18T09:44:04.742Z,62.80
2018-03-18T09:46:32.347Z,62.10
2018-03-18T09:48:59.916Z,63.10
2018-03-18T09:51:27.513Z,63.30
2018-03-18T09:53:55.127Z,62.80
2018-03-18T09:56:22.743Z,63.10
2018-03-18T09:58:50.329Z,62.40
2018-03-18T10:01:17.899Z,62.10
2018-03-18T10:03:45.468Z,62.60
2018-03-18T10:06:13.066Z,61.70
2018-03-18T10:08:40.785Z,61.50
2018-03-18T10:11:08.376Z,61.60
2018-03-18T10:13:35.985Z,61.50
2018-03-18T10:16:03.579Z,61.90
2018-03-18T10:18:31.172Z,62.20
2018-03-18T10:20:58.771Z,61.60
2018-03-18T10:23:26.352Z,62.00
2018-03-18T10:25:53.949Z,61.70
2018-03-18T10:28:21.657Z,62.20
2018-03-18T10:30:49.372Z,63.30
2018-03-18T10:33:16.944Z,62.40
2018-03-18T10:35:45.310Z,62.20
2018-03-18T10:38:12.891Z,62.20
2018-03-18T10:40:40.471Z,61.20
2018-03-18T10:43:08.078Z,62.90
2018-03-18T10:45:35.847Z,61.30
2018-03-18T10:48:03.455Z,60.80
2018-03-18T10:50:31.111Z,61.80
2018-03-18T10:52:58.755Z,62.10
2018-03-18T10:55:26.443Z,59.80
2018-03-18T10:57:54.028Z,60.20
2018-03-18T11:00:21.607Z,61.00
2018-03-18T11:02:50.004Z,61.30
2018-03-18T11:05:18.520Z,60.10
2018-03-18T11:07:46.178Z,60.10
2018-03-18T11:10:13.784Z,60.20
2018-03-18T11:12:41.366Z,60.40
2018-03-18T11:15:09.877Z,60.50
2018-03-18T11:17:37.457Z,60.50
2018-03-18T11:20:05.048Z,60.00
2018-03-18T11:22:33.435Z,61.10
2018-03-18T11:25:01.839Z,59.60
2018-03-18T11:27:29.443Z,59.50
2018-03-18T11:29:57.071Z,60.40
2018-03-18T11:32:24.635Z,61.20
2018-03-18T11:34:52.438Z,59.10
2018-03-18T11:37:20.058Z,58.50
2018-03-18T11:39:47.627Z,60.60
2018-03-18T11:42:15.260Z,59.60
2018-03-18T11:44:42.834Z,58.70
2018-03-18T11:47:10.423Z,59.50
2018-03-18T11:49:37.988Z,59.20
2018-03-18T11:52:05.600Z,58.70
2018-03-18T11:54:33.186Z,59.70
2018-03-18T11:57:00.787Z,59.30
2018-03-18T11:59:29.220Z,59.10
2018-03-18T12:01:56.822Z,59.00
2018-03-18T12:04:25.210Z,59.40
2018-03-18T12:06:52.776Z,59.40
2018-03-18T12:09:20.363Z,59.60
2018-03-18T12:11:47.964Z,60.90
2018-03-18T12:14:15.567Z,59.60
2018-03-18T12:16:43.160Z,59.70
2018-03-18T12:19:10.748Z,58.90
2018-03-18T12:21:39.080Z,59.70
2018-03-18T12:24:06.727Z,59.60
2018-03-18T12:26:34.331Z,59.70
2018-03-18T12:29:03.431Z,59.90
2018-03-18T12:31:31.033Z,59.90
2018-03-18T12:33:58.607Z,59.90
2018-03-18T12:36:26.303Z,60.20
2018-03-18T12:38:53.883Z,59.30
2018-03-18T12:41:22.219Z,59.60
2018-03-18T12:43:49.816Z,59.50
2018-03-18T12:46:17.418Z,59.70
2018-03-18T12:48:45.131Z,60.90
2018-03-18T12:51:13.483Z,60.90
2018-03-18T12:53:41.074Z,60.80
2018-03-18T12:56:09.461Z,62.80
2018-03-18T12:58:37.968Z,61.30
2018-03-18T13:01:05.546Z,61.20
2018-03-18T13:03:33.347Z,61.30
2018-03-18T13:06:01.761Z,58.60
2018-03-18T13:08:30.109Z,58.80
2018-03-18T13:10:58.536Z,58.90
2018-03-18T13:13:26.214Z,58.90
2018-03-18T13:15:53.787Z,57.90
2018-03-18T13:18:21.370Z,58.80
2018-03-18T13:20:49.844Z,58.20
2018-03-18T13:23:18.378Z,59.10
2018-03-18T13:25:45.944Z,59.00
2018-03-18T13:28:13.579Z,58.10
2018-03-18T13:30:41.179Z,58.90
2018-03-18T13:33:08.757Z,59.00
2018-03-18T13:35:37.153Z,58.90
2018-03-18T13:38:04.850Z,58.80
2018-03-18T13:40:32.424Z,60.50
2018-03-18T13:43:00.053Z,58.20
2018-03-18T13:45:27.672Z,58.90
2018-03-18T13:47:55.307Z,58.70
2018-03-18T13:50:22.870Z,58.60
2018-03-18T13:52:50.490Z,59.00
2018-03-18T13:55:18.087Z,58.50
2018-03-18T13:57:45.696Z,59.30
2018-03-18T14:00:13.387Z,58.90
2018-03-18T14:02:40.975Z,58.40
2018-03-18T14:05:09.371Z,58.80
2018-03-18T20:10:18.668Z,62.50
2018-03-18T20:12:46.406Z,62.50
2018-03-18T20:15:14.968Z,63.20
2018-03-18T20:17:42.648Z,63.10
2018-03-18T20:20:11.026Z,61.70
2018-03-18T20:22:39.413Z,63.20
2018-03-18T20:25:07.770Z,62.10
2018-03-18T20:27:35.371Z,62.10
2018-03-18T20:30:03.002Z,61.70
2018-03-18T20:32:31.356Z,61.50
2018-03-18T20:34:58.957Z,61.50
2018-03-18T20:37:26.538Z,61.10
2018-03-18T20:39:54.171Z,61.30
2018-03-18T20:42:22.574Z,61.80
2018-03-18T20:44:50.201Z,61.80
2018-03-18T20:47:17.787Z,61.90
2018-03-18T20:49:45.398Z,62.60
2018-03-18T20:52:13.199Z,62.50
2018-03-18T20:54:40.798Z,62.80
2018-03-18T20:57:08.410Z,62.30
2018-03-18T20:59:36.004Z,61.30
2018-03-18T21:02:03.920Z,61.90
2018-03-18T21:04:32.274Z,61.80
2018-03-18T21:06:59.883Z,61.80
2018-03-18T21:09:27.459Z,62.20
2018-03-18T21:11:55.063Z,62.80
2018-03-18T21:14:22.646Z,61.90
2018-03-18T21:16:50.252Z,62.30
2018-03-18T21:19:17.852Z,63.30
2018-03-18T21:21:46.232Z,62.70
2018-03-18T21:24:14.580Z,63.70
2018-03-18T21:26:42.187Z,63.00
2018-03-18T21:29:09.808Z,62.70
2018-03-18T21:31:37.412Z,63.60
2018-03-18T21:34:05.040Z,62.40
2018-03-18T21:36:33.395Z,63.30
2018-03-18T21:39:01.012Z,63.30
2018-03-18T21:41:28.623Z,63.20
2018-03-18T21:43:56.241Z,63.10
2018-03-18T21:46:23.830Z,63.60
2018-03-18T21:48:51.418Z,63.50
2018-03-18T21:51:19.850Z,63.90
2018-03-18T21:53:47.418Z,63.90
2018-03-18T21:56:15.020Z,63.20
2018-03-18T21:58:43.384Z,63.00
2018-03-18T22:01:10.982Z,63.00
2018-03-18T22:03:38.592Z,63.10
2018-03-18T22:06:06.188Z,63.30
2018-03-18T22:08:33.772Z,63.90
2018-03-18T22:11:01.364Z,63.90
2018-03-18T22:13:28.933Z,63.60
2018-03-18T22:15:57.267Z,64.00
2018-03-18T22:18:24.863Z,64.00
2018-03-18T22:20:52.439Z,63.50
2018-03-18T22:23:20.831Z,66.00
2018-03-18T22:25:48.528Z,65.90
2018-03-18T22:28:16.299Z,63.50
2018-03-18T22:30:43.895Z,64.50
2018-03-18T22:33:11.497Z,64.10
2018-03-18T22:35:39.067Z,63.70
2018-03-18T22:38:06.680Z,63.90
2018-03-18T22:40:35.031Z,63.90
2018-03-18T22:43:02.648Z,63.80
2018-03-18T22:45:30.236Z,63.80
2018-03-18T22:47:57.987Z,64.10
2018-03-18T22:50:25.571Z,64.70
2018-03-18T22:52:53.180Z,64.40
2018-03-18T22:55:20.827Z,64.30
2018-03-18T22:57:49.256Z,64.40
2018-03-18T23:00:18.782Z,64.40
2018-03-18T23:02:46.399Z,65.00
2018-03-18T23:05:13.980Z,64.70
2018-03-18T23:07:41.566Z,65.30
2018-03-18T23:10:09.287Z,64.40
2018-03-18T23:12:36.853Z,64.20
2018-03-18T23:15:04.448Z,65.20
2018-03-18T23:17:32.803Z,63.60
2018-03-18T23:20:00.395Z,63.60
2018-03-18T23:22:28.944Z,63.70
2018-03-18T23:24:56.535Z,63.70
2018-03-18T23:27:24.867Z,63.90
2018-03-18T23:29:52.558Z,63.90
2018-03-18T23:32:20.241Z,64.40
2018-03-18T23:34:48.757Z,64.70
2018-03-18T23:37:16.361Z,64.70
2018-03-18T23:39:43.926Z,64.90
2018-03-18T23:42:12.356Z,63.80
2018-03-18T23:44:40.027Z,63.70
2018-03-18T23:47:07.647Z,63.80
2018-03-18T23:49:35.252Z,63.60
2018-03-18T23:52:02.847Z,64.70
2018-03-18T23:54:30.415Z,63.80
2018-03-18T23:56:58.926Z,64.80
2018-03-18T23:59:26.538Z,64.70
